createdAt,value
2023-01-21T00:01:07.314Z,22.83
2023-01-21T00:03:34.356Z,23.73
2023-01-21T00:06:02.701Z,24.60
2023-01-21T00:08:29.594Z,20.17
2023-01-21T00:10:56.544Z,19.50
2023-01-21T00:13:23.742Z,22.17
2023-01-21T00:15:50.959Z,23.80
2023-01-21T00:18:17.921Z,22.93
2023-01-21T00:20:45.557Z,20.40
2023-01-21T00:23:13.827Z,24.77
2023-01-21T00:25:40.615Z,22.90
2023-01-21T00:28:07.632Z,20.63
2023-01-21T00:30:35.571Z,25.43
2023-01-21T00:33:02.600Z,21.13
2023-01-21T00:35:29.391Z,20.70
2023-01-21T00:37:56.255Z,23.13
2023-01-21T00:40:24.976Z,24.20
2023-01-21T00:42:51.880Z,23.90
2023-01-21T00:45:18.803Z,24.97
2023-01-21T00:47:45.732Z,24.87
2023-01-21T00:50:12.582Z,24.67
2023-01-21T00:52:39.501Z,25.70
2023-01-21T00:55:07.040Z,24.30
2023-01-21T00:57:35.482Z,29.67
2023-01-21T01:00:02.419Z,22.00
2023-01-21T01:02:29.469Z,22.93
2023-01-21T01:04:56.376Z,23.27
2023-01-21T01:07:23.289Z,23.37
2023-01-21T01:09:50.171Z,25.10
2023-01-21T01:12:17.090Z,23.07
2023-01-21T01:14:45.269Z,22.07
2023-01-21T01:17:12.119Z,24.80
2023-01-21T01:19:39.038Z,23.07
2023-01-21T01:22:05.856Z,23.67
2023-01-21T01:24:32.781Z,22.97
2023-01-21T01:26:59.709Z,25.07
2023-01-21T01:29:26.750Z,24.43
2023-01-21T01:31:55.357Z,22.87
2023-01-21T01:34:22.333Z,23.47
2023-01-21T01:36:49.320Z,24.10
2023-01-21T01:39:16.139Z,21.37
2023-01-21T01:41:43.027Z,24.13
2023-01-21T01:44:43.452Z,22.10
2023-01-21T01:47:12.048Z,25.43
2023-01-21T01:49:38.913Z,21.57
2023-01-21T01:52:07.738Z,19.80
2023-01-21T01:54:39.386Z,24.60
2023-01-21T01:57:09.507Z,25.87
2023-01-21T01:59:36.765Z,24.03
2023-01-21T02:02:07.609Z,23.77
2023-01-21T02:04:49.996Z,22.83
2023-01-21T02:07:21.000Z,22.40
2023-01-21T02:09:48.449Z,23.70
2023-01-21T02:12:18.089Z,23.97
2023-01-21T02:14:46.209Z,28.90
2023-01-21T02:17:29.013Z,27.60
2023-01-21T02:20:24.213Z,27.97
2023-01-21T02:23:02.828Z,22.87
2023-01-21T02:26:03.029Z,24.73
2023-01-21T02:29:02.325Z,25.93
2023-01-21T02:31:55.435Z,23.80
2023-01-21T02:34:32.744Z,26.70
2023-01-21T02:37:10.114Z,24.97
2023-01-21T02:39:52.503Z,22.50
2023-01-21T02:42:26.835Z,19.20
2023-01-21T02:45:03.172Z,22.40
2023-01-21T02:47:38.129Z,27.73
2023-01-21T02:50:10.376Z,23.40
2023-01-21T02:52:37.204Z,24.33
2023-01-21T02:55:04.782Z,21.73
2023-01-21T02:57:38.352Z,21.10
2023-01-21T03:00:10.325Z,20.90
2023-01-21T03:03:03.931Z,22.07
2023-01-21T03:05:47.014Z,18.67
2023-01-21T03:08:21.550Z,21.30
2023-01-21T03:10:55.592Z,19.10
2023-01-21T03:13:47.623Z,18.63
2023-01-21T03:16:38.427Z,18.93
2023-01-21T03:19:09.896Z,18.97
2023-01-21T03:21:38.915Z,23.30
2023-01-21T03:24:08.242Z,17.27
2023-01-21T03:26:40.995Z,19.10
2023-01-21T03:29:14.538Z,18.40
2023-01-21T03:31:45.198Z,16.30
2023-01-21T03:34:15.155Z,19.30
2023-01-21T03:36:51.476Z,19.30
2023-01-21T03:39:26.987Z,17.97
2023-01-21T03:41:53.919Z,18.67
2023-01-21T03:44:21.355Z,18.93
2023-01-21T03:46:56.436Z,18.10
2023-01-21T03:49:31.994Z,19.07
2023-01-21T03:52:01.732Z,17.03
2023-01-21T03:54:28.613Z,15.33
2023-01-21T03:56:55.469Z,17.13
2023-01-21T03:59:22.395Z,15.97
2023-01-21T04:01:49.338Z,17.80
2023-01-21T04:04:16.280Z,17.40
2023-01-21T04:06:43.145Z,16.33
2023-01-21T04:09:12.017Z,19.13
2023-01-21T04:11:38.869Z,17.87
2023-01-21T04:14:05.771Z,15.07
2023-01-21T04:16:32.789Z,20.20
2023-01-21T04:18:59.684Z,16.50
2023-01-21T04:21:26.579Z,20.50
2023-01-21T04:23:54.072Z,19.23
2023-01-21T04:26:22.433Z,18.40
2023-01-21T04:28:49.316Z,19.27
2023-01-21T04:31:16.191Z,18.93
2023-01-21T04:33:43.128Z,16.50
2023-01-21T04:36:10.095Z,16.67
2023-01-21T04:38:37.003Z,18.87
2023-01-21T04:41:03.866Z,20.77
2023-01-21T04:43:32.134Z,18.33
2023-01-21T04:45:59.165Z,18.77
2023-01-21T04:48:26.073Z,16.57
2023-01-21T04:50:52.952Z,19.80
2023-01-21T04:53:19.821Z,18.87
2023-01-21T04:55:46.734Z,18.93
2023-01-21T04:58:13.649Z,20.70
2023-01-21T05:00:41.972Z,25.13
2023-01-21T05:03:08.786Z,22.70
2023-01-21T05:05:35.628Z,18.77
2023-01-21T05:08:02.503Z,18.73
2023-01-21T05:10:29.460Z,20.30
2023-01-21T05:12:56.306Z,20.97
2023-01-21T05:15:23.488Z,21.60
2023-01-21T05:17:51.663Z,21.80
2023-01-21T05:20:18.944Z,16.40
2023-01-21T05:22:46.178Z,20.30
2023-01-21T05:25:13.027Z,20.83
2023-01-21T05:27:39.948Z,19.20
2023-01-21T05:30:08.154Z,19.80
2023-01-21T05:32:36.549Z,18.93
2023-01-21T05:35:05.377Z,19.43
2023-01-21T05:37:32.243Z,20.63
2023-01-21T05:39:59.126Z,23.27
2023-01-21T05:42:26.034Z,17.93
2023-01-21T05:44:53.099Z,18.77
2023-01-21T05:47:19.996Z,23.93
2023-01-21T05:49:46.877Z,19.17
2023-01-21T05:52:15.067Z,23.87
2023-01-21T05:54:52.482Z,18.10
2023-01-21T05:57:27.183Z,18.50
2023-01-21T05:59:54.087Z,19.23
2023-01-21T06:02:21.034Z,22.40
2023-01-21T06:04:47.944Z,19.33
2023-01-21T06:07:16.362Z,17.70
2023-01-21T06:09:43.337Z,20.63
2023-01-21T06:12:10.327Z,20.03
2023-01-21T06:14:37.137Z,21.40
2023-01-21T06:17:04.075Z,23.33
2023-01-21T06:19:30.956Z,19.57
2023-01-21T06:21:57.853Z,18.07
2023-01-21T06:24:26.008Z,19.60
2023-01-21T06:26:53.385Z,18.33
2023-01-21T06:29:20.187Z,19.80
2023-01-21T06:31:47.264Z,17.07
2023-01-21T06:34:14.278Z,17.13
2023-01-21T06:36:42.732Z,20.03
2023-01-21T06:39:10.899Z,25.67
2023-01-21T06:41:39.462Z,19.60
2023-01-21T06:44:07.088Z,19.57
2023-01-21T06:46:34.138Z,20.40
2023-01-21T06:49:01.233Z,19.20
2023-01-21T06:51:28.084Z,21.93
2023-01-21T06:53:55.132Z,21.40
2023-01-21T06:56:22.467Z,20.70
2023-01-21T06:58:50.714Z,21.43
2023-01-21T07:01:17.653Z,17.30
2023-01-21T07:03:44.601Z,23.07
2023-01-21T07:06:11.478Z,18.87
2023-01-21T07:08:38.362Z,21.20
2023-01-21T07:11:05.355Z,19.70
2023-01-21T07:13:32.257Z,20.73
2023-01-21T07:16:01.207Z,20.23
2023-01-21T07:18:28.055Z,22.80
2023-01-21T07:20:56.044Z,26.87
2023-01-21T07:23:23.159Z,20.23
2023-01-21T07:25:50.144Z,23.17
2023-01-21T07:28:17.079Z,22.83
2023-01-21T07:30:44.259Z,24.60
2023-01-21T07:33:12.538Z,22.97
2023-01-21T07:35:39.612Z,20.53
2023-01-21T07:38:06.595Z,21.90
2023-01-21T07:40:33.465Z,20.47
2023-01-21T07:43:00.458Z,20.77
2023-01-21T07:45:27.432Z,23.73
2023-01-21T07:47:54.307Z,21.90
2023-01-21T07:50:22.565Z,20.50
2023-01-21T07:52:49.402Z,21.03
2023-01-21T07:55:16.717Z,16.03
2023-01-21T07:57:43.868Z,19.90
2023-01-21T08:00:12.499Z,21.00
2023-01-21T08:02:39.876Z,20.70
2023-01-21T08:05:07.352Z,21.53
2023-01-21T08:07:35.654Z,18.10
2023-01-21T08:10:02.824Z,17.80
2023-01-21T08:12:29.763Z,16.40
2023-01-21T08:14:56.691Z,18.33
2023-01-21T08:17:23.609Z,20.93
2023-01-21T08:19:50.493Z,18.07
2023-01-21T08:22:17.348Z,19.10
2023-01-21T08:24:45.726Z,17.27
2023-01-21T08:27:12.613Z,16.50
2023-01-21T08:29:39.549Z,17.63
2023-01-21T08:32:06.458Z,22.20
2023-01-21T08:34:33.705Z,17.37
2023-01-21T08:37:01.162Z,16.07
2023-01-21T08:39:28.029Z,17.63
2023-01-21T08:41:56.301Z,15.40
2023-01-21T08:44:23.195Z,15.67
2023-01-21T08:46:50.164Z,13.73
2023-01-21T08:49:17.066Z,17.93
2023-01-21T08:51:44.159Z,14.23
2023-01-21T08:54:11.034Z,13.93
2023-01-21T08:56:37.927Z,14.37
2023-01-21T08:59:06.632Z,16.20
2023-01-21T09:01:36.039Z,14.87
2023-01-21T09:04:03.054Z,16.53
2023-01-21T09:06:30.545Z,15.60
2023-01-21T09:08:58.340Z,14.67
2023-01-21T09:11:25.947Z,13.63
2023-01-21T09:13:52.857Z,16.70
2023-01-21T09:16:22.729Z,13.50
2023-01-21T09:18:49.792Z,17.73
2023-01-21T09:21:17.034Z,11.17
2023-01-21T09:23:44.364Z,14.47
2023-01-21T09:26:15.300Z,13.03
2023-01-21T09:28:43.887Z,15.47
2023-01-21T09:31:12.666Z,14.20
2023-01-21T09:33:42.597Z,11.93
2023-01-21T09:36:13.104Z,12.67
2023-01-21T09:38:41.773Z,14.30
2023-01-21T09:41:32.675Z,13.13
2023-01-21T09:44:05.721Z,10.53
2023-01-21T09:46:38.999Z,12.93
2023-01-21T09:49:13.230Z,17.30
2023-01-21T09:51:47.789Z,19.30
2023-01-21T09:54:21.841Z,12.70
2023-01-21T09:57:28.317Z,15.80
2023-01-21T10:00:07.962Z,15.43
2023-01-21T10:02:44.456Z,13.60
2023-01-21T10:05:39.033Z,13.97
2023-01-21T10:08:13.046Z,15.77
2023-01-21T10:10:46.791Z,13.80
2023-01-21T10:13:37.331Z,14.07
2023-01-21T10:16:10.550Z,12.87
2023-01-21T10:18:40.222Z,15.33
2023-01-21T10:21:16.018Z,13.60
2023-01-21T10:23:45.913Z,14.47
2023-01-21T10:26:14.806Z,13.03
2023-01-21T10:28:47.181Z,11.90
2023-01-21T10:31:21.375Z,13.00
2023-01-21T10:33:48.749Z,11.30
2023-01-21T10:36:36.124Z,14.30
2023-01-21T10:39:12.473Z,15.83
2023-01-21T10:41:57.368Z,15.37
2023-01-21T10:44:31.629Z,13.83
2023-01-21T10:47:07.098Z,15.10
2023-01-21T10:49:46.449Z,15.27
2023-01-21T10:52:21.833Z,15.17
2023-01-21T10:54:58.814Z,17.13
2023-01-21T10:57:37.097Z,15.57
2023-01-21T11:00:15.747Z,15.10
2023-01-21T11:02:42.886Z,16.03
2023-01-21T11:05:14.704Z,12.83
2023-01-21T11:07:43.667Z,13.33
2023-01-21T11:10:17.801Z,14.33
2023-01-21T11:12:44.664Z,15.13
2023-01-21T11:15:15.406Z,16.07
2023-01-21T11:17:45.228Z,14.77
2023-01-21T11:20:21.937Z,11.83
2023-01-21T11:22:50.783Z,13.70
2023-01-21T11:25:36.525Z,13.80
2023-01-21T11:28:04.066Z,13.93
2023-01-21T11:30:49.658Z,9.83
2023-01-21T11:33:26.650Z,11.77
2023-01-21T11:35:55.188Z,11.70
2023-01-21T11:38:37.009Z,11.33
2023-01-21T11:41:07.167Z,9.70
2023-01-21T11:43:39.886Z,12.93
2023-01-21T11:46:30.443Z,9.73
2023-01-21T11:49:17.773Z,10.57
2023-01-21T11:51:46.246Z,13.40
2023-01-21T11:54:16.269Z,10.63
2023-01-21T11:56:53.756Z,10.97
2023-01-21T11:59:25.669Z,9.23
2023-01-21T12:01:56.798Z,9.70
2023-01-21T12:04:24.413Z,8.60
2023-01-21T12:06:57.850Z,10.13
2023-01-21T12:09:27.756Z,10.50
2023-01-21T12:12:20.904Z,9.87
2023-01-21T12:14:53.544Z,12.27
2023-01-21T12:17:36.500Z,8.83
2023-01-21T12:20:18.617Z,11.83
2023-01-21T12:23:06.783Z,10.03
2023-01-21T12:25:44.092Z,12.70
2023-01-21T12:28:30.553Z,9.50
2023-01-21T12:31:08.909Z,12.23
2023-01-21T12:33:44.182Z,8.23
2023-01-21T12:36:17.113Z,9.20
2023-01-21T12:38:48.788Z,8.60
2023-01-21T12:41:21.105Z,10.13
2023-01-21T12:43:51.059Z,40.13
2023-01-21T12:46:23.146Z,8.73
2023-01-21T12:48:56.208Z,7.70
2023-01-21T12:51:27.968Z,9.07
2023-01-21T12:54:00.214Z,8.80
2023-01-21T12:56:37.686Z,8.47
2023-01-21T12:59:13.337Z,8.60
2023-01-21T13:01:46.359Z,9.23
2023-01-21T13:04:33.338Z,7.77
2023-01-21T13:07:06.308Z,6.45
2023-01-21T13:09:41.113Z,9.17
2023-01-21T13:12:15.499Z,7.57
2023-01-21T13:14:48.473Z,6.53
2023-01-21T13:17:18.900Z,8.80
2023-01-21T13:19:45.926Z,7.13
2023-01-21T13:22:25.930Z,5.83
2023-01-21T13:25:02.459Z,8.70
2023-01-21T13:27:40.354Z,8.53
2023-01-21T13:30:20.610Z,5.53
2023-01-21T13:32:55.583Z,7.57
2023-01-21T13:35:31.771Z,8.40
2023-01-21T13:38:07.474Z,7.63
2023-01-21T13:40:42.735Z,6.40
2023-01-21T13:43:32.086Z,9.97
2023-01-21T13:46:11.175Z,8.67
2023-01-21T13:49:01.576Z,5.07
2023-01-21T13:51:43.488Z,4.97
2023-01-21T13:54:37.493Z,7.53
2023-01-21T13:57:25.344Z,6.20
2023-01-21T13:59:56.409Z,6.10
2023-01-21T14:02:30.262Z,5.33
2023-01-21T14:05:05.658Z,7.40
2023-01-21T14:07:35.536Z,5.33
2023-01-21T14:10:10.938Z,9.60
2023-01-21T14:13:03.048Z,5.07
2023-01-21T14:15:47.464Z,6.47
2023-01-21T14:18:32.741Z,5.20
2023-01-21T14:21:29.246Z,9.57
2023-01-21T14:24:15.761Z,5.93
2023-01-21T14:26:55.559Z,5.60
2023-01-21T14:29:33.099Z,4.47
2023-01-21T14:32:11.159Z,6.33
2023-01-21T14:34:49.986Z,5.83
2023-01-21T14:37:24.021Z,5.87
2023-01-21T14:39:58.474Z,5.67
2023-01-21T14:42:41.593Z,5.57
2023-01-21T14:45:09.156Z,6.50
2023-01-21T14:47:51.744Z,5.10
2023-01-21T14:50:46.008Z,9.77
2023-01-21T14:53:19.066Z,7.93
2023-01-21T14:55:46.099Z,6.67
2023-01-21T14:58:23.093Z,6.47
2023-01-21T15:00:51.417Z,9.10
2023-01-21T15:03:27.043Z,6.53
2023-01-21T15:05:56.847Z,7.80
2023-01-21T15:08:26.946Z,7.53
2023-01-21T15:10:58.744Z,9.60
2023-01-21T15:13:35.822Z,6.80
2023-01-21T15:16:14.476Z,8.60
2023-01-21T15:18:45.355Z,7.17
2023-01-21T15:21:33.741Z,6.70
2023-01-21T15:24:20.990Z,9.77
2023-01-21T15:27:04.070Z,7.60
2023-01-21T15:29:35.865Z,8.73
2023-01-21T15:32:28.158Z,11.33
2023-01-21T15:34:59.567Z,8.93
2023-01-21T15:37:29.184Z,8.43
2023-01-21T15:40:02.087Z,8.50
2023-01-21T15:42:39.605Z,7.23
2023-01-21T15:45:23.757Z,9.23
2023-01-21T15:48:12.468Z,9.97
2023-01-21T15:50:46.624Z,9.20
2023-01-21T15:53:45.753Z,8.83
2023-01-21T15:56:36.803Z,14.60
2023-01-21T15:59:17.568Z,10.33
2023-01-21T16:01:46.054Z,9.50
2023-01-21T16:04:25.257Z,9.10
2023-01-21T16:07:13.047Z,7.83
2023-01-21T16:09:52.504Z,8.17
2023-01-21T16:12:28.591Z,7.30
2023-01-21T16:15:01.213Z,7.50
2023-01-21T16:17:44.771Z,10.60
2023-01-21T16:20:13.250Z,7.57
2023-01-21T16:22:45.695Z,7.17
2023-01-21T16:25:16.223Z,7.97
2023-01-21T16:27:47.467Z,5.67
2023-01-21T16:30:17.134Z,10.27
2023-01-21T16:32:44.123Z,6.57
2023-01-21T16:35:11.147Z,6.53
2023-01-21T16:37:38.136Z,8.43
2023-01-21T16:40:27.084Z,7.10
2023-01-21T16:43:11.666Z,9.50
2023-01-21T16:45:40.272Z,9.10
2023-01-21T16:48:20.852Z,7.50
2023-01-21T16:50:48.704Z,7.70
2023-01-21T16:53:18.630Z,7.43
2023-01-21T16:55:48.953Z,8.90
2023-01-21T16:58:34.420Z,7.17
2023-01-21T17:01:09.656Z,7.63
2023-01-21T17:03:37.203Z,10.13
2023-01-21T17:06:12.401Z,8.60
2023-01-21T17:08:40.324Z,9.80
2023-01-21T17:11:11.201Z,9.90
2023-01-21T17:13:41.651Z,10.07
2023-01-21T17:16:20.140Z,7.83
2023-01-21T17:18:52.316Z,7.00
2023-01-21T17:21:22.800Z,7.40
2023-01-21T17:23:52.681Z,7.77
2023-01-21T17:26:24.915Z,8.13
2023-01-21T17:28:55.281Z,10.37
2023-01-21T17:31:26.763Z,8.37
2023-01-21T17:34:06.771Z,8.33
2023-01-21T17:36:35.594Z,9.60
2023-01-21T17:39:03.135Z,7.00
2023-01-21T17:41:34.412Z,8.40
2023-01-21T17:44:04.412Z,7.27
2023-01-21T17:46:32.146Z,7.77
2023-01-21T17:49:06.107Z,6.17
2023-01-21T17:51:34.612Z,16.37
2023-01-21T17:54:04.026Z,8.80
2023-01-21T17:56:38.618Z,9.43
2023-01-21T17:59:28.347Z,7.83
2023-01-21T18:01:55.969Z,6.63
2023-01-21T18:04:23.203Z,7.30
2023-01-21T18:06:52.185Z,9.27
2023-01-21T18:09:21.098Z,8.57
2023-01-21T18:11:50.877Z,7.93
2023-01-21T18:14:19.533Z,7.07
2023-01-21T18:16:47.583Z,8.30
2023-01-21T18:19:28.610Z,6.97
2023-01-21T18:21:56.338Z,9.67
2023-01-21T18:24:24.104Z,8.40
2023-01-21T18:26:52.709Z,6.87
2023-01-21T18:29:21.771Z,6.40
2023-01-21T18:31:51.259Z,7.27
2023-01-21T18:34:18.775Z,8.57
2023-01-21T18:36:45.876Z,7.73
2023-01-21T18:39:14.703Z,5.67
2023-01-21T18:41:41.897Z,7.90
2023-01-21T18:44:10.282Z,8.47
2023-01-21T18:46:43.762Z,8.47
2023-01-21T18:49:16.370Z,8.97
2023-01-21T18:51:43.625Z,7.43
2023-01-21T18:54:10.819Z,6.87
2023-01-21T18:56:38.228Z,8.17
2023-01-21T18:59:13.528Z,9.00
2023-01-21T19:01:40.467Z,8.73
2023-01-21T19:04:09.764Z,7.70
2023-01-21T19:06:37.098Z,6.80
2023-01-21T19:09:04.268Z,7.23
2023-01-21T19:11:31.161Z,6.13
2023-01-21T19:13:58.161Z,7.37
2023-01-21T19:16:26.642Z,7.23
2023-01-21T19:18:53.604Z,7.00
2023-01-21T19:21:20.520Z,8.13
2023-01-21T19:23:47.422Z,6.93
2023-01-21T19:26:14.437Z,5.47
2023-01-21T19:28:41.781Z,7.93
2023-01-21T19:31:08.963Z,9.27
2023-01-21T19:33:37.359Z,6.43
2023-01-21T19:36:13.133Z,7.90
2023-01-21T19:38:42.097Z,5.30
2023-01-21T19:41:10.564Z,7.27
2023-01-21T19:43:37.587Z,9.67
2023-01-21T19:46:11.364Z,8.73
2023-01-21T19:48:40.195Z,7.87
2023-01-21T19:51:08.754Z,6.63
2023-01-21T19:53:36.021Z,9.07
2023-01-21T19:56:04.709Z,6.63
2023-01-21T19:58:32.539Z,7.70
2023-01-21T20:00:59.496Z,6.27
2023-01-21T20:03:28.434Z,7.73
2023-01-21T20:06:03.449Z,11.20
2023-01-21T20:08:31.545Z,5.80
2023-01-21T20:10:58.499Z,8.97
2023-01-21T20:13:26.253Z,6.83
2023-01-21T20:15:53.569Z,8.83
2023-01-21T20:18:23.040Z,9.57
2023-01-21T20:20:50.230Z,8.67
2023-01-21T20:23:21.564Z,11.83
2023-01-21T20:25:50.312Z,5.37
2023-01-21T20:28:20.340Z,6.93
2023-01-21T20:30:48.335Z,7.47
2023-01-21T20:33:17.304Z,7.43
2023-01-21T20:35:46.124Z,8.80
2023-01-21T20:38:15.000Z,8.77
2023-01-21T20:40:43.530Z,7.73
2023-01-21T20:43:11.245Z,10.83
2023-01-21T20:45:42.067Z,8.27
2023-01-21T20:48:18.566Z,7.77
2023-01-21T20:50:45.552Z,8.80
2023-01-21T20:53:13.201Z,7.90
2023-01-21T20:55:42.142Z,6.37
2023-01-21T20:58:12.026Z,6.33
2023-01-21T21:00:39.524Z,6.30
2023-01-21T21:03:06.985Z,7.73
2023-01-21T21:05:34.746Z,8.07
2023-01-21T21:08:01.958Z,6.23
2023-01-21T21:10:32.508Z,7.83
2023-01-21T21:12:59.515Z,7.60
2023-01-21T21:15:29.236Z,6.70
2023-01-21T21:17:56.299Z,7.53
2023-01-21T21:20:25.133Z,7.10
2023-01-21T21:22:52.312Z,7.83
2023-01-21T21:25:22.157Z,8.27
2023-01-21T21:27:49.540Z,9.30
2023-01-21T21:30:19.933Z,11.03
2023-01-21T21:32:48.317Z,7.10
2023-01-21T21:35:26.963Z,9.47
2023-01-21T21:37:55.651Z,8.30
2023-01-21T21:40:24.288Z,8.27
2023-01-21T21:43:10.264Z,9.13
2023-01-21T21:45:37.771Z,9.53
2023-01-21T21:48:41.101Z,8.97
2023-01-21T21:51:10.213Z,10.33
2023-01-21T21:53:37.824Z,11.00
2023-01-21T21:56:06.444Z,10.57
2023-01-21T21:58:33.804Z,12.07
2023-01-21T22:01:07.995Z,9.23
2023-01-21T22:03:36.775Z,10.87
2023-01-21T22:06:04.202Z,9.73
2023-01-21T22:08:32.703Z,10.17
2023-01-21T22:11:01.020Z,11.03
2023-01-21T22:13:28.749Z,9.13
2023-01-21T22:15:56.527Z,9.37
2023-01-21T22:18:23.597Z,10.90
2023-01-21T22:20:55.306Z,9.20
2023-01-21T22:23:22.390Z,9.73
2023-01-21T22:25:49.434Z,9.60
2023-01-21T22:28:16.380Z,9.47
2023-01-21T22:30:43.477Z,12.40
2023-01-21T22:33:11.143Z,10.70
2023-01-21T22:35:39.721Z,9.77
2023-01-21T22:38:08.021Z,10.37
2023-01-21T22:40:38.414Z,11.47
2023-01-21T22:43:05.364Z,7.47
2023-01-21T22:45:32.235Z,10.00
2023-01-21T22:47:59.084Z,10.90
2023-01-21T22:50:26.109Z,11.80
2023-01-21T22:52:53.001Z,9.57
2023-01-21T22:55:21.283Z,8.37
2023-01-21T22:57:48.197Z,6.23
2023-01-21T23:00:30.833Z,11.27
2023-01-21T23:02:58.557Z,7.50
2023-01-21T23:05:27.074Z,8.97
2023-01-21T23:07:54.342Z,7.20
2023-01-21T23:10:22.997Z,9.03
2023-01-21T23:12:50.417Z,9.53
2023-01-21T23:15:17.621Z,7.20
2023-01-21T23:17:44.568Z,7.30
2023-01-21T23:20:11.671Z,7.77
2023-01-21T23:22:38.748Z,8.40
2023-01-21T23:25:06.689Z,8.07
2023-01-21T23:27:35.027Z,9.30
2023-01-21T23:30:01.957Z,8.43
2023-01-21T23:32:28.994Z,7.60
2023-01-21T23:34:55.915Z,5.17
2023-01-21T23:37:22.863Z,6.80
2023-01-21T23:39:49.791Z,8.33
2023-01-21T23:42:17.068Z,7.83
2023-01-21T23:44:45.723Z,7.60
2023-01-21T23:47:12.630Z,6.90
2023-01-21T23:49:39.448Z,6.80
2023-01-21T23:52:12.103Z,9.40
2023-01-21T23:54:39.021Z,6.13
2023-01-21T23:57:06.010Z,7.20
2023-01-21T23:59:32.968Z,6.87
